sensor_id;sensor_type;location;lat;lon;timestamp;temperature;humidity
11136;DHT22;5622;50.840;4.948;2023-03-13T00:01:02;10.80;99.90
11136;DHT22;5622;50.840;4.948;2023-03-13T00:03:37;10.80;99.90
11136;DHT22;5622;50.840;4.948;2023-03-13T00:06:04;10.80;99.90
11136;DHT22;5622;50.840;4.948;2023-03-13T00:08:37;10.70;99.90
11136;DHT22;5622;50.840;4.948;2023-03-13T00:11:06;10.70;99.90
11136;DHT22;5622;50.840;4.948;2023-03-13T00:13:34;10.70;99.90
11136;DHT22;5622;50.840;4.948;2023-03-13T00:16:02;10.70;99.90
11136;DHT22;5622;50.840;4.948;2023-03-13T00:18:30;10.70;99.90
11136;DHT22;5622;50.840;4.948;2023-03-13T00:21:08;10.70;99.90
11136;DHT22;5622;50.840;4.948;2023-03-13T00:23:36;10.70;99.90
11136;DHT22;5622;50.840;4.948;2023-03-13T00:26:05;10.60;99.90
11136;DHT22;5622;50.840;4.948;2023-03-13T00:28:33;10.70;99.90
11136;DHT22;5622;50.840;4.948;2023-03-13T00:31:02;10.70;99.90
11136;DHT22;5622;50.840;4.948;2023-03-13T00:33:30;10.70;99.90
11136;DHT22;5622;50.840;4.948;2023-03-13T00:36:00;10.70;99.90
11136;DHT22;5622;50.840;4.948;2023-03-13T00:38:28;10.70;99.90
11136;DHT22;5622;50.840;4.948;2023-03-13T00:40:59;10.70;99.90
11136;DHT22;5622;50.840;4.948;2023-03-13T00:43:26;10.70;99.90
11136;DHT22;5622;50.840;4.948;2023-03-13T00:45:54;10.70;99.90
11136;DHT22;5622;50.840;4.948;2023-03-13T00:48:21;10.70;99.90
11136;DHT22;5622;50.840;4.948;2023-03-13T00:50:49;10.70;99.90
11136;DHT22;5622;50.840;4.948;2023-03-13T00:53:17;10.70;99.90
11136;DHT22;5622;50.840;4.948;2023-03-13T00:55:55;10.70;99.90
11136;DHT22;5622;50.840;4.948;2023-03-13T00:58:23;10.70;99.90
11136;DHT22;5622;50.840;4.948;2023-03-13T01:00:51;10.80;99.90
11136;DHT22;5622;50.840;4.948;2023-03-13T01:03:18;10.80;99.90
11136;DHT22;5622;50.840;4.948;2023-03-13T01:05:54;10.80;99.90
11136;DHT22;5622;50.840;4.948;2023-03-13T01:08:23;10.80;99.90
11136;DHT22;5622;50.840;4.948;2023-03-13T01:10:50;10.80;99.90
11136;DHT22;5622;50.840;4.948;2023-03-13T01:13:23;10.80;99.90
11136;DHT22;5622;50.840;4.948;2023-03-13T01:15:50;10.70;99.90
11136;DHT22;5622;50.840;4.948;2023-03-13T01:18:17;10.80;99.90
11136;DHT22;5622;50.840;4.948;2023-03-13T01:20:44;10.70;99.90
11136;DHT22;5622;50.840;4.948;2023-03-13T01:23:11;10.80;99.90
11136;DHT22;5622;50.840;4.948;2023-03-13T01:25:40;10.80;99.90
11136;DHT22;5622;50.840;4.948;2023-03-13T01:28:07;10.80;99.90
11136;DHT22;5622;50.840;4.948;2023-03-13T01:30:34;10.80;99.90
11136;DHT22;5622;50.840;4.948;2023-03-13T01:33:01;10.80;99.90
11136;DHT22;5622;50.840;4.948;2023-03-13T01:35:28;10.80;99.90
11136;DHT22;5622;50.840;4.948;2023-03-13T01:37:55;10.80;99.90
11136;DHT22;5622;50.840;4.948;2023-03-13T01:40:23;10.80;99.90
11136;DHT22;5622;50.840;4.948;2023-03-13T01:42:56;10.90;99.90
11136;DHT22;5622;50.840;4.948;2023-03-13T01:45:53;10.90;99.90
11136;DHT22;5622;50.840;4.948;2023-03-13T01:48:21;10.90;99.90
11136;DHT22;5622;50.840;4.948;2023-03-13T01:50:52;10.90;99.90
11136;DHT22;5622;50.840;4.948;2023-03-13T01:53:19;10.90;99.90
11136;DHT22;5622;50.840;4.948;2023-03-13T01:55:47;10.90;99.90
11136;DHT22;5622;50.840;4.948;2023-03-13T01:58:15;10.90;99.90
11136;DHT22;5622;50.840;4.948;2023-03-13T02:00:43;11.00;99.90
11136;DHT22;5622;50.840;4.948;2023-03-13T02:03:14;11.00;99.90
11136;DHT22;5622;50.840;4.948;2023-03-13T02:05:43;11.00;99.90
11136;DHT22;5622;50.840;4.948;2023-03-13T02:08:14;11.10;99.90
11136;DHT22;5622;50.840;4.948;2023-03-13T02:10:49;11.10;99.90
11136;DHT22;5622;50.840;4.948;2023-03-13T02:13:19;11.10;99.90
11136;DHT22;5622;50.840;4.948;2023-03-13T02:15:46;11.10;99.90
11136;DHT22;5622;50.840;4.948;2023-03-13T02:18:14;11.20;99.90
11136;DHT22;5622;50.840;4.948;2023-03-13T02:20:42;11.10;99.90
11136;DHT22;5622;50.840;4.948;2023-03-13T02:23:13;11.20;99.90
11136;DHT22;5622;50.840;4.948;2023-03-13T02:25:45;11.20;99.90
11136;DHT22;5622;50.840;4.948;2023-03-13T02:28:16;11.20;99.90
11136;DHT22;5622;50.840;4.948;2023-03-13T02:30:47;11.20;99.90
11136;DHT22;5622;50.840;4.948;2023-03-13T02:33:15;11.20;99.90
11136;DHT22;5622;50.840;4.948;2023-03-13T02:35:43;11.30;99.90
11136;DHT22;5622;50.840;4.948;2023-03-13T02:38:15;11.30;99.90
11136;DHT22;5622;50.840;4.948;2023-03-13T02:40:47;11.40;99.90
11136;DHT22;5622;50.840;4.948;2023-03-13T02:43:17;11.40;99.90
11136;DHT22;5622;50.840;4.948;2023-03-13T02:46:03;11.40;99.90
11136;DHT22;5622;50.840;4.948;2023-03-13T02:48:33;11.40;99.90
11136;DHT22;5622;50.840;4.948;2023-03-13T02:51:02;11.40;99.90
11136;DHT22;5622;50.840;4.948;2023-03-13T02:53:32;11.40;99.90
11136;DHT22;5622;50.840;4.948;2023-03-13T02:56:02;11.50;99.90
11136;DHT22;5622;50.840;4.948;2023-03-13T02:58:37;11.50;99.90
11136;DHT22;5622;50.840;4.948;2023-03-13T03:01:04;11.60;99.90
11136;DHT22;5622;50.840;4.948;2023-03-13T03:03:33;11.60;99.90
11136;DHT22;5622;50.840;4.948;2023-03-13T03:06:00;11.60;99.90
11136;DHT22;5622;50.840;4.948;2023-03-13T03:08:28;11.60;99.90
11136;DHT22;5622;50.840;4.948;2023-03-13T03:10:55;11.70;99.90
11136;DHT22;5622;50.840;4.948;2023-03-13T03:13:23;11.70;99.90
11136;DHT22;5622;50.840;4.948;2023-03-13T03:15:51;11.70;99.90
11136;DHT22;5622;50.840;4.948;2023-03-13T03:18:18;11.70;99.90
11136;DHT22;5622;50.840;4.948;2023-03-13T03:20:45;11.80;99.90
11136;DHT22;5622;50.840;4.948;2023-03-13T03:23:12;11.80;99.90
11136;DHT22;5622;50.840;4.948;2023-03-13T03:25:39;11.90;99.90
11136;DHT22;5622;50.840;4.948;2023-03-13T03:28:06;11.90;99.90
11136;DHT22;5622;50.840;4.948;2023-03-13T03:30:34;11.90;99.90
11136;DHT22;5622;50.840;4.948;2023-03-13T03:33:02;11.90;99.90
11136;DHT22;5622;50.840;4.948;2023-03-13T03:35:29;11.90;99.90
11136;DHT22;5622;50.840;4.948;2023-03-13T03:37:58;12.00;99.90
11136;DHT22;5622;50.840;4.948;2023-03-13T03:40:25;12.00;99.90
11136;DHT22;5622;50.840;4.948;2023-03-13T03:42:52;12.00;99.90
11136;DHT22;5622;50.840;4.948;2023-03-13T03:45:20;12.10;99.90
11136;DHT22;5622;50.840;4.948;2023-03-13T03:47:48;12.10;99.90
11136;DHT22;5622;50.840;4.948;2023-03-13T03:50:16;12.10;99.90
11136;DHT22;5622;50.840;4.948;2023-03-13T03:52:43;12.10;99.90
11136;DHT22;5622;50.840;4.948;2023-03-13T03:55:10;12.20;99.90
11136;DHT22;5622;50.840;4.948;2023-03-13T03:57:37;12.10;99.90
11136;DHT22;5622;50.840;4.948;2023-03-13T04:00:06;12.10;99.90
11136;DHT22;5622;50.840;4.948;2023-03-13T04:02:38;12.20;99.90
11136;DHT22;5622;50.840;4.948;2023-03-13T04:05:07;12.20;99.90
11136;DHT22;5622;50.840;4.948;2023-03-13T04:07:34;12.20;99.90
11136;DHT22;5622;50.840;4.948;2023-03-13T04:10:01;12.30;99.90
11136;DHT22;5622;50.840;4.948;2023-03-13T04:12:28;12.30;99.90
11136;DHT22;5622;50.840;4.948;2023-03-13T04:14:55;12.30;99.90
11136;DHT22;5622;50.840;4.948;2023-03-13T04:17:22;12.30;99.90
11136;DHT22;5622;50.840;4.948;2023-03-13T04:19:50;12.30;99.90
11136;DHT22;5622;50.840;4.948;2023-03-13T04:22:19;12.30;99.90
11136;DHT22;5622;50.840;4.948;2023-03-13T04:24:46;12.30;99.90
11136;DHT22;5622;50.840;4.948;2023-03-13T04:27:13;12.40;99.90
11136;DHT22;5622;50.840;4.948;2023-03-13T04:29:40;12.40;99.90
11136;DHT22;5622;50.840;4.948;2023-03-13T04:32:08;12.40;99.90
11136;DHT22;5622;50.840;4.948;2023-03-13T04:34:35;12.50;99.90
11136;DHT22;5622;50.840;4.948;2023-03-13T04:37:02;12.40;99.90
11136;DHT22;5622;50.840;4.948;2023-03-13T04:39:31;12.40;99.90
11136;DHT22;5622;50.840;4.948;2023-03-13T04:41:58;12.40;99.90
11136;DHT22;5622;50.840;4.948;2023-03-13T04:44:25;12.40;99.90
11136;DHT22;5622;50.840;4.948;2023-03-13T04:46:52;12.40;99.90
11136;DHT22;5622;50.840;4.948;2023-03-13T04:49:19;12.40;99.90
11136;DHT22;5622;50.840;4.948;2023-03-13T04:51:46;12.40;99.90
11136;DHT22;5622;50.840;4.948;2023-03-13T04:54:13;12.40;99.90
11136;DHT22;5622;50.840;4.948;2023-03-13T04:56:42;12.40;99.90
11136;DHT22;5622;50.840;4.948;2023-03-13T04:59:10;12.40;99.90
11136;DHT22;5622;50.840;4.948;2023-03-13T05:01:37;12.40;99.90
11136;DHT22;5622;50.840;4.948;2023-03-13T05:04:05;12.40;99.90
11136;DHT22;5622;50.840;4.948;2023-03-13T05:06:32;12.50;99.90
11136;DHT22;5622;50.840;4.948;2023-03-13T05:09:01;12.50;99.90
11136;DHT22;5622;50.840;4.948;2023-03-13T05:11:28;12.60;99.90
11136;DHT22;5622;50.840;4.948;2023-03-13T05:13:57;12.50;99.90
11136;DHT22;5622;50.840;4.948;2023-03-13T05:16:24;12.60;99.90
11136;DHT22;5622;50.840;4.948;2023-03-13T05:18:51;12.60;99.90
11136;DHT22;5622;50.840;4.948;2023-03-13T05:21:18;12.70;99.90
11136;DHT22;5622;50.840;4.948;2023-03-13T05:23:45;12.70;99.90
11136;DHT22;5622;50.840;4.948;2023-03-13T05:26:12;12.70;99.90
11136;DHT22;5622;50.840;4.948;2023-03-13T05:28:39;12.80;99.90
11136;DHT22;5622;50.840;4.948;2023-03-13T05:31:08;12.80;99.90
11136;DHT22;5622;50.840;4.948;2023-03-13T05:33:35;12.80;99.90
11136;DHT22;5622;50.840;4.948;2023-03-13T05:36:02;12.80;99.90
11136;DHT22;5622;50.840;4.948;2023-03-13T05:38:30;12.90;99.90
11136;DHT22;5622;50.840;4.948;2023-03-13T05:40:57;12.90;99.90
11136;DHT22;5622;50.840;4.948;2023-03-13T05:43:24;12.80;99.90
11136;DHT22;5622;50.840;4.948;2023-03-13T05:45:51;12.90;99.90
11136;DHT22;5622;50.840;4.948;2023-03-13T05:48:19;12.90;99.90
11136;DHT22;5622;50.840;4.948;2023-03-13T05:50:46;12.90;99.90
11136;DHT22;5622;50.840;4.948;2023-03-13T05:53:14;12.90;99.90
11136;DHT22;5622;50.840;4.948;2023-03-13T05:55:41;12.90;99.90
11136;DHT22;5622;50.840;4.948;2023-03-13T05:58:08;12.90;99.90
11136;DHT22;5622;50.840;4.948;2023-03-13T06:00:35;12.90;99.90
11136;DHT22;5622;50.840;4.948;2023-03-13T06:03:02;12.90;99.90
11136;DHT22;5622;50.840;4.948;2023-03-13T06:05:31;12.80;99.90
11136;DHT22;5622;50.840;4.948;2023-03-13T06:08:00;12.80;99.90
11136;DHT22;5622;50.840;4.948;2023-03-13T06:10:28;12.90;99.90
11136;DHT22;5622;50.840;4.948;2023-03-13T06:12:55;12.90;99.90
11136;DHT22;5622;50.840;4.948;2023-03-13T06:15:23;12.80;99.90
11136;DHT22;5622;50.840;4.948;2023-03-13T06:17:52;12.90;99.90
11136;DHT22;5622;50.840;4.948;2023-03-13T06:20:20;12.90;99.90
11136;DHT22;5622;50.840;4.948;2023-03-13T06:22:49;12.90;99.90
11136;DHT22;5622;50.840;4.948;2023-03-13T06:25:16;12.80;99.90
11136;DHT22;5622;50.840;4.948;2023-03-13T06:27:43;12.80;99.90
11136;DHT22;5622;50.840;4.948;2023-03-13T06:30:11;12.90;99.90
11136;DHT22;5622;50.840;4.948;2023-03-13T06:32:38;12.90;99.90
11136;DHT22;5622;50.840;4.948;2023-03-13T06:35:06;12.90;99.90
11136;DHT22;5622;50.840;4.948;2023-03-13T06:37:33;12.90;99.90
11136;DHT22;5622;50.840;4.948;2023-03-13T06:40:02;12.90;99.90
11136;DHT22;5622;50.840;4.948;2023-03-13T06:42:31;12.90;99.90
11136;DHT22;5622;50.840;4.948;2023-03-13T06:44:58;12.90;99.90
11136;DHT22;5622;50.840;4.948;2023-03-13T06:47:25;12.90;99.90
11136;DHT22;5622;50.840;4.948;2023-03-13T06:49:52;12.90;99.90
11136;DHT22;5622;50.840;4.948;2023-03-13T06:52:19;12.90;99.90
11136;DHT22;5622;50.840;4.948;2023-03-13T06:54:46;12.90;99.90
11136;DHT22;5622;50.840;4.948;2023-03-13T06:57:15;12.90;99.90
11136;DHT22;5622;50.840;4.948;2023-03-13T06:59:44;12.80;99.90
11136;DHT22;5622;50.840;4.948;2023-03-13T07:02:12;12.90;99.90
11136;DHT22;5622;50.840;4.948;2023-03-13T07:04:39;12.80;99.90
11136;DHT22;5622;50.840;4.948;2023-03-13T07:07:06;12.80;99.90
11136;DHT22;5622;50.840;4.948;2023-03-13T07:09:33;12.80;99.90
11136;DHT22;5622;50.840;4.948;2023-03-13T07:12:01;12.70;99.90
11136;DHT22;5622;50.840;4.948;2023-03-13T07:14:30;12.70;99.90
11136;DHT22;5622;50.840;4.948;2023-03-13T07:16:58;12.70;99.90
11136;DHT22;5622;50.840;4.948;2023-03-13T07:19:25;12.70;99.90
11136;DHT22;5622;50.840;4.948;2023-03-13T07:21:53;12.70;99.90
11136;DHT22;5622;50.840;4.948;2023-03-13T07:24:21;12.60;99.90
11136;DHT22;5622;50.840;4.948;2023-03-13T07:26:48;12.70;99.90
11136;DHT22;5622;50.840;4.948;2023-03-13T07:29:15;12.70;99.90
11136;DHT22;5622;50.840;4.948;2023-03-13T07:31:44;12.60;99.90
11136;DHT22;5622;50.840;4.948;2023-03-13T07:34:15;12.70;99.90
11136;DHT22;5622;50.840;4.948;2023-03-13T07:36:44;12.70;99.90
11136;DHT22;5622;50.840;4.948;2023-03-13T07:39:12;12.70;99.90
11136;DHT22;5622;50.840;4.948;2023-03-13T07:41:39;12.70;99.90
11136;DHT22;5622;50.840;4.948;2023-03-13T07:44:06;12.80;99.90
11136;DHT22;5622;50.840;4.948;2023-03-13T07:46:34;12.80;99.90
11136;DHT22;5622;50.840;4.948;2023-03-13T07:49:02;12.80;99.90
11136;DHT22;5622;50.840;4.948;2023-03-13T07:51:29;12.80;99.90
11136;DHT22;5622;50.840;4.948;2023-03-13T07:53:56;12.80;99.90
11136;DHT22;5622;50.840;4.948;2023-03-13T07:56:23;12.80;99.90
11136;DHT22;5622;50.840;4.948;2023-03-13T07:58:51;12.80;99.90
11136;DHT22;5622;50.840;4.948;2023-03-13T08:01:20;12.80;99.90
11136;DHT22;5622;50.840;4.948;2023-03-13T08:03:47;12.80;99.90
11136;DHT22;5622;50.840;4.948;2023-03-13T08:06:20;12.90;99.90
11136;DHT22;5622;50.840;4.948;2023-03-13T08:08:48;12.90;99.90
11136;DHT22;5622;50.840;4.948;2023-03-13T08:11:17;13.10;99.90
11136;DHT22;5622;50.840;4.948;2023-03-13T08:13:44;13.20;99.90
11136;DHT22;5622;50.840;4.948;2023-03-13T08:16:13;13.30;99.90
11136;DHT22;5622;50.840;4.948;2023-03-13T08:18:43;13.40;99.90
11136;DHT22;5622;50.840;4.948;2023-03-13T08:21:11;13.50;99.90
11136;DHT22;5622;50.840;4.948;2023-03-13T08:23:41;13.70;99.90
11136;DHT22;5622;50.840;4.948;2023-03-13T08:26:09;13.70;99.90
11136;DHT22;5622;50.840;4.948;2023-03-13T08:28:38;13.80;99.90
11136;DHT22;5622;50.840;4.948;2023-03-13T08:31:07;13.80;99.90
11136;DHT22;5622;50.840;4.948;2023-03-13T08:33:34;13.80;99.90
11136;DHT22;5622;50.840;4.948;2023-03-13T08:36:09;13.70;99.90
11136;DHT22;5622;50.840;4.948;2023-03-13T08:38:41;13.70;99.90
11136;DHT22;5622;50.840;4.948;2023-03-13T08:41:09;13.70;99.90
11136;DHT22;5622;50.840;4.948;2023-03-13T08:43:36;13.70;99.90
11136;DHT22;5622;50.840;4.948;2023-03-13T08:46:04;13.80;99.90
11136;DHT22;5622;50.840;4.948;2023-03-13T08:48:31;13.90;99.90
11136;DHT22;5622;50.840;4.948;2023-03-13T08:51:02;13.90;99.90
11136;DHT22;5622;50.840;4.948;2023-03-13T08:53:31;14.00;99.90
11136;DHT22;5622;50.840;4.948;2023-03-13T08:56:00;14.10;99.90
11136;DHT22;5622;50.840;4.948;2023-03-13T08:58:27;14.20;99.90
11136;DHT22;5622;50.840;4.948;2023-03-13T09:01:01;14.20;99.90
11136;DHT22;5622;50.840;4.948;2023-03-13T09:03:28;14.30;99.90
11136;DHT22;5622;50.840;4.948;2023-03-13T09:05:56;14.40;99.90
11136;DHT22;5622;50.840;4.948;2023-03-13T09:08:23;14.40;99.90
11136;DHT22;5622;50.840;4.948;2023-03-13T09:10:54;14.60;99.90
11136;DHT22;5622;50.840;4.948;2023-03-13T09:13:24;14.60;99.90
11136;DHT22;5622;50.840;4.948;2023-03-13T09:15:55;14.70;99.90
11136;DHT22;5622;50.840;4.948;2023-03-13T09:18:23;14.70;99.90
11136;DHT22;5622;50.840;4.948;2023-03-13T09:20:50;14.70;99.90
11136;DHT22;5622;50.840;4.948;2023-03-13T09:23:19;14.70;99.90
11136;DHT22;5622;50.840;4.948;2023-03-13T09:25:46;14.80;99.90
11136;DHT22;5622;50.840;4.948;2023-03-13T09:28:14;14.80;99.90
11136;DHT22;5622;50.840;4.948;2023-03-13T09:30:46;14.80;99.90
11136;DHT22;5622;50.840;4.948;2023-03-13T09:33:16;14.80;99.90
11136;DHT22;5622;50.840;4.948;2023-03-13T09:35:43;14.90;99.90
11136;DHT22;5622;50.840;4.948;2023-03-13T09:38:15;14.90;99.90
11136;DHT22;5622;50.840;4.948;2023-03-13T09:40:45;14.90;99.90
11136;DHT22;5622;50.840;4.948;2023-03-13T09:43:21;15.00;99.90
11136;DHT22;5622;50.840;4.948;2023-03-13T09:45:55;15.10;99.90
11136;DHT22;5622;50.840;4.948;2023-03-13T09:48:28;15.10;99.90
11136;DHT22;5622;50.840;4.948;2023-03-13T09:51:02;15.20;99.90
11136;DHT22;5622;50.840;4.948;2023-03-13T09:53:38;15.20;99.90
11136;DHT22;5622;50.840;4.948;2023-03-13T09:56:12;15.30;99.90
11136;DHT22;5622;50.840;4.948;2023-03-13T09:58:49;15.50;99.90
11136;DHT22;5622;50.840;4.948;2023-03-13T10:01:22;15.50;99.90
11136;DHT22;5622;50.840;4.948;2023-03-13T10:03:58;15.40;99.90
11136;DHT22;5622;50.840;4.948;2023-03-13T10:06:29;15.40;99.90
11136;DHT22;5622;50.840;4.948;2023-03-13T10:08:59;15.50;99.90
11136;DHT22;5622;50.840;4.948;2023-03-13T10:11:28;15.50;99.90
11136;DHT22;5622;50.840;4.948;2023-03-13T10:14:02;15.40;99.90
11136;DHT22;5622;50.840;4.948;2023-03-13T10:16:39;15.30;99.90
11136;DHT22;5622;50.840;4.948;2023-03-13T10:19:11;15.30;99.90
11136;DHT22;5622;50.840;4.948;2023-03-13T10:21:42;15.20;99.90
11136;DHT22;5622;50.840;4.948;2023-03-13T10:24:16;15.20;99.90
11136;DHT22;5622;50.840;4.948;2023-03-13T10:26:44;15.30;99.90
11136;DHT22;5622;50.840;4.948;2023-03-13T10:29:20;15.40;99.90
11136;DHT22;5622;50.840;4.948;2023-03-13T10:31:55;15.50;99.90
11136;DHT22;5622;50.840;4.948;2023-03-13T10:34:23;15.60;99.90
11136;DHT22;5622;50.840;4.948;2023-03-13T10:36:55;15.70;99.90
11136;DHT22;5622;50.840;4.948;2023-03-13T10:39:25;15.80;99.90
11136;DHT22;5622;50.840;4.948;2023-03-13T10:41:57;15.80;99.90
11136;DHT22;5622;50.840;4.948;2023-03-13T10:44:31;15.70;99.90
11136;DHT22;5622;50.840;4.948;2023-03-13T10:47:01;15.70;99.90
11136;DHT22;5622;50.840;4.948;2023-03-13T10:49:31;15.60;99.90
11136;DHT22;5622;50.840;4.948;2023-03-13T10:52:01;15.60;99.90
11136;DHT22;5622;50.840;4.948;2023-03-13T10:54:29;15.60;99.90
11136;DHT22;5622;50.840;4.948;2023-03-13T10:57:22;15.70;99.90
11136;DHT22;5622;50.840;4.948;2023-03-13T10:59:52;15.80;99.90
11136;DHT22;5622;50.840;4.948;2023-03-13T11:02:23;16.10;99.90
11136;DHT22;5622;50.840;4.948;2023-03-13T11:04:51;16.10;99.90
11136;DHT22;5622;50.840;4.948;2023-03-13T11:07:27;16.20;99.90
11136;DHT22;5622;50.840;4.948;2023-03-13T11:09:59;16.30;99.90
11136;DHT22;5622;50.840;4.948;2023-03-13T11:12:26;16.30;99.90
11136;DHT22;5622;50.840;4.948;2023-03-13T11:14:57;16.30;99.90
11136;DHT22;5622;50.840;4.948;2023-03-13T11:17:31;16.30;99.90
11136;DHT22;5622;50.840;4.948;2023-03-13T11:20:06;16.30;99.90
11136;DHT22;5622;50.840;4.948;2023-03-13T11:22:48;16.30;99.90
11136;DHT22;5622;50.840;4.948;2023-03-13T11:25:30;16.40;99.90
11136;DHT22;5622;50.840;4.948;2023-03-13T11:28:19;16.30;99.90
11136;DHT22;5622;50.840;4.948;2023-03-13T11:31:00;16.40;99.90
11136;DHT22;5622;50.840;4.948;2023-03-13T11:33:37;16.40;99.90
11136;DHT22;5622;50.840;4.948;2023-03-13T11:36:17;16.40;99.90
11136;DHT22;5622;50.840;4.948;2023-03-13T11:38:49;16.30;99.90
11136;DHT22;5622;50.840;4.948;2023-03-13T11:41:41;16.20;99.90
11136;DHT22;5622;50.840;4.948;2023-03-13T11:44:30;16.20;99.90
11136;DHT22;5622;50.840;4.948;2023-03-13T11:47:25;16.20;99.90
11136;DHT22;5622;50.840;4.948;2023-03-13T11:50:06;16.20;99.90
11136;DHT22;5622;50.840;4.948;2023-03-13T11:52:42;16.20;99.90
11136;DHT22;5622;50.840;4.948;2023-03-13T11:55:36;16.20;99.90
11136;DHT22;5622;50.840;4.948;2023-03-13T12:01:13;16.30;99.90
11136;DHT22;5622;50.840;4.948;2023-03-13T12:03:48;16.40;99.90
11136;DHT22;5622;50.840;4.948;2023-03-13T12:06:24;16.50;99.90
11136;DHT22;5622;50.840;4.948;2023-03-13T12:08:54;16.60;99.90
11136;DHT22;5622;50.840;4.948;2023-03-13T12:11:26;16.60;99.90
11136;DHT22;5622;50.840;4.948;2023-03-13T12:13:57;16.60;99.90
11136;DHT22;5622;50.840;4.948;2023-03-13T12:16:33;16.60;99.90
11136;DHT22;5622;50.840;4.948;2023-03-13T12:19:04;16.60;99.90
11136;DHT22;5622;50.840;4.948;2023-03-13T12:21:36;16.60;99.90
11136;DHT22;5622;50.840;4.948;2023-03-13T12:24:09;16.60;99.90
11136;DHT22;5622;50.840;4.948;2023-03-13T12:26:41;16.60;99.90
11136;DHT22;5622;50.840;4.948;2023-03-13T12:29:15;16.60;99.90
11136;DHT22;5622;50.840;4.948;2023-03-13T12:31:47;16.50;99.90
11136;DHT22;5622;50.840;4.948;2023-03-13T12:34:21;16.50;99.90
11136;DHT22;5622;50.840;4.948;2023-03-13T12:36:57;16.60;99.90
11136;DHT22;5622;50.840;4.948;2023-03-13T12:39:31;16.60;99.90
11136;DHT22;5622;50.840;4.948;2023-03-13T12:42:15;16.70;99.90
11136;DHT22;5622;50.840;4.948;2023-03-13T12:44:43;16.70;99.90
11136;DHT22;5622;50.840;4.948;2023-03-13T12:47:16;16.80;99.90
11136;DHT22;5622;50.840;4.948;2023-03-13T12:53:04;16.60;99.90
11136;DHT22;5622;50.840;4.948;2023-03-13T12:58:47;16.60;99.90
11136;DHT22;5622;50.840;4.948;2023-03-13T13:01:26;16.60;99.90
11136;DHT22;5622;50.840;4.948;2023-03-13T13:03:56;16.60;99.90
11136;DHT22;5622;50.840;4.948;2023-03-13T13:06:25;16.50;99.90
11136;DHT22;5622;50.840;4.948;2023-03-13T13:09:19;16.50;99.90
11136;DHT22;5622;50.840;4.948;2023-03-13T13:11:51;16.40;99.90
11136;DHT22;5622;50.840;4.948;2023-03-13T13:15:09;16.30;99.90
11136;DHT22;5622;50.840;4.948;2023-03-13T13:18:02;16.30;99.90
11136;DHT22;5622;50.840;4.948;2023-03-13T13:20:40;16.20;99.90
11136;DHT22;5622;50.840;4.948;2023-03-13T13:23:27;16.20;99.90
11136;DHT22;5622;50.840;4.948;2023-03-13T13:32:46;16.40;99.90
11136;DHT22;5622;50.840;4.948;2023-03-13T13:35:23;16.40;99.90
11136;DHT22;5622;50.840;4.948;2023-03-13T13:37:51;16.40;99.90
11136;DHT22;5622;50.840;4.948;2023-03-13T13:40:22;16.40;99.90
11136;DHT22;5622;50.840;4.948;2023-03-13T13:42:52;16.40;99.90
11136;DHT22;5622;50.840;4.948;2023-03-13T13:45:22;16.40;99.90
11136;DHT22;5622;50.840;4.948;2023-03-13T13:48:12;16.30;99.90
11136;DHT22;5622;50.840;4.948;2023-03-13T13:50:38;16.30;99.90
11136;DHT22;5622;50.840;4.948;2023-03-13T13:53:29;16.30;99.90
11136;DHT22;5622;50.840;4.948;2023-03-13T13:55:58;16.30;99.90
11136;DHT22;5622;50.840;4.948;2023-03-13T13:58:29;16.30;99.90
11136;DHT22;5622;50.840;4.948;2023-03-13T14:00:59;16.20;99.90
11136;DHT22;5622;50.840;4.948;2023-03-13T14:03:28;16.30;99.90
11136;DHT22;5622;50.840;4.948;2023-03-13T14:05:59;16.30;99.90
11136;DHT22;5622;50.840;4.948;2023-03-13T14:08:30;16.30;99.90
11136;DHT22;5622;50.840;4.948;2023-03-13T14:11:13;16.30;99.90
11136;DHT22;5622;50.840;4.948;2023-03-13T14:14:09;16.40;99.90
11136;DHT22;5622;50.840;4.948;2023-03-13T14:16:37;16.50;99.90
11136;DHT22;5622;50.840;4.948;2023-03-13T14:19:20;16.40;99.90
11136;DHT22;5622;50.840;4.948;2023-03-13T14:21:48;16.40;99.90
11136;DHT22;5622;50.840;4.948;2023-03-13T14:24:16;16.30;99.90
11136;DHT22;5622;50.840;4.948;2023-03-13T14:26:44;16.30;99.90
11136;DHT22;5622;50.840;4.948;2023-03-13T14:29:17;16.20;99.90
11136;DHT22;5622;50.840;4.948;2023-03-13T14:31:52;16.30;99.90
11136;DHT22;5622;50.840;4.948;2023-03-13T14:34:19;16.30;99.90
11136;DHT22;5622;50.840;4.948;2023-03-13T14:36:47;16.30;99.90
11136;DHT22;5622;50.840;4.948;2023-03-13T14:39:17;16.30;99.90
11136;DHT22;5622;50.840;4.948;2023-03-13T14:41:46;16.40;99.90
11136;DHT22;5622;50.840;4.948;2023-03-13T14:44:21;16.30;99.90
11136;DHT22;5622;50.840;4.948;2023-03-13T14:46:54;16.40;99.90
11136;DHT22;5622;50.840;4.948;2023-03-13T14:49:25;16.50;99.90
11136;DHT22;5622;50.840;4.948;2023-03-13T14:51:59;16.50;99.90
11136;DHT22;5622;50.840;4.948;2023-03-13T14:54:30;16.50;99.90
11136;DHT22;5622;50.840;4.948;2023-03-13T14:57:12;16.50;99.90
11136;DHT22;5622;50.840;4.948;2023-03-13T14:59:41;16.40;99.90
11136;DHT22;5622;50.840;4.948;2023-03-13T15:02:19;16.30;99.90
11136;DHT22;5622;50.840;4.948;2023-03-13T15:04:54;16.30;99.90
11136;DHT22;5622;50.840;4.948;2023-03-13T15:07:25;16.40;99.90
11136;DHT22;5622;50.840;4.948;2023-03-13T15:09:52;16.40;99.90
11136;DHT22;5622;50.840;4.948;2023-03-13T15:12:22;16.30;99.90
11136;DHT22;5622;50.840;4.948;2023-03-13T15:14:51;16.30;99.90
11136;DHT22;5622;50.840;4.948;2023-03-13T15:17:20;16.30;99.90
11136;DHT22;5622;50.840;4.948;2023-03-13T15:19:49;16.30;99.90
11136;DHT22;5622;50.840;4.948;2023-03-13T15:22:17;16.30;99.90
11136;DHT22;5622;50.840;4.948;2023-03-13T15:24:46;16.40;99.90
11136;DHT22;5622;50.840;4.948;2023-03-13T15:27:17;16.30;99.90
11136;DHT22;5622;50.840;4.948;2023-03-13T15:29:45;16.20;99.90
11136;DHT22;5622;50.840;4.948;2023-03-13T15:32:21;16.10;99.90
11136;DHT22;5622;50.840;4.948;2023-03-13T15:34:50;16.10;99.90
11136;DHT22;5622;50.840;4.948;2023-03-13T15:37:17;16.10;99.90
11136;DHT22;5622;50.840;4.948;2023-03-13T15:39:45;16.10;99.90
11136;DHT22;5622;50.840;4.948;2023-03-13T15:42:12;16.00;99.90
11136;DHT22;5622;50.840;4.948;2023-03-13T15:44:39;16.10;99.90
11136;DHT22;5622;50.840;4.948;2023-03-13T15:47:10;16.00;99.90
11136;DHT22;5622;50.840;4.948;2023-03-13T15:49:42;16.00;99.90
11136;DHT22;5622;50.840;4.948;2023-03-13T15:52:14;16.00;99.90
11136;DHT22;5622;50.840;4.948;2023-03-13T15:54:43;16.00;99.90
11136;DHT22;5622;50.840;4.948;2023-03-13T15:57:11;15.90;99.90
11136;DHT22;5622;50.840;4.948;2023-03-13T15:59:40;16.00;99.90
11136;DHT22;5622;50.840;4.948;2023-03-13T16:02:13;16.00;99.90
11136;DHT22;5622;50.840;4.948;2023-03-13T16:04:43;15.90;99.90
11136;DHT22;5622;50.840;4.948;2023-03-13T16:07:11;15.90;99.90
11136;DHT22;5622;50.840;4.948;2023-03-13T16:09:39;15.80;99.90
11136;DHT22;5622;50.840;4.948;2023-03-13T16:12:07;15.70;99.90
11136;DHT22;5622;50.840;4.948;2023-03-13T16:14:38;15.70;99.90
11136;DHT22;5622;50.840;4.948;2023-03-13T16:17:12;15.70;99.90
11136;DHT22;5622;50.840;4.948;2023-03-13T16:19:40;15.60;99.90
11136;DHT22;5622;50.840;4.948;2023-03-13T16:22:08;15.60;99.90